GLO1422 SBSP-SBCN
Flight info
| Callsign | GLO1422 |
|---|---|
| Flight time | 1h 5m |
| Altitude | 36000 |
| Route | GERTU UZ25 CORVO |
| Aircraft | B738/M-SDFGIKLORWXY/LB1 |
Departure
| Time | 2026-05-07 16:13 |
|---|---|
| Airport | Congonhas–Deputado Freitas Nobre Airport (SBSP) |
Arrival
| Time | 2026-05-07 17:19 |
|---|---|
| Airport | Nelson Ribeiro Guimarães Airport (SBCN) |
| Time | Latitude | Longitude | Altitude | Speed | Heading |
|---|---|---|---|---|---|
| 2026-05-07 16:03 | -23.62944 | -46.65807 | 2599 ft | 0 kts | 328° |
| 2026-05-07 16:05 | -23.62958 | -46.65798 | 2627 ft | 3 kts | 328° |
| 2026-05-07 16:05 | -23.62975 | -46.65794 | 2594 ft | 3 kts | 30° |
| 2026-05-07 16:05 | -23.62991 | -46.65805 | 2599 ft | 3 kts | 61° |
| 2026-05-07 16:06 | -23.62994 | -46.65810 | 2599 ft | 0 kts | 60° |
| 2026-05-07 16:07 | -23.62994 | -46.65809 | 2599 ft | 1 kts | 60° |
| 2026-05-07 16:07 | -23.62984 | -46.65792 | 2599 ft | 5 kts | 59° |
| 2026-05-07 16:08 | -23.62953 | -46.65740 | 2600 ft | 11 kts | 57° |
| 2026-05-07 16:08 | -23.62910 | -46.65666 | 2600 ft | 12 kts | 58° |
| 2026-05-07 16:08 | -23.62873 | -46.65621 | 2601 ft | 6 kts | 13° |
| 2026-05-07 16:08 | -23.62833 | -46.65640 | 2602 ft | 7 kts | 329° |
| 2026-05-07 16:09 | -23.62816 | -46.65672 | 2601 ft | 5 kts | 242° |
| 2026-05-07 16:09 | -23.62841 | -46.65661 | 2601 ft | 5 kts | 113° |
| 2026-05-07 16:09 | -23.62858 | -46.65627 | 2602 ft | 5 kts | 132° |
| 2026-05-07 16:09 | -23.62894 | -46.65598 | 2602 ft | 8 kts | 146° |
| 2026-05-07 16:10 | -23.62950 | -46.65558 | 2602 ft | 12 kts | 148° |
| 2026-05-07 16:10 | -23.63042 | -46.65514 | 2602 ft | 17 kts | 169° |
| 2026-05-07 16:10 | -23.63159 | -46.65450 | 2601 ft | 20 kts | 147° |
| 2026-05-07 16:10 | -23.63273 | -46.65371 | 2601 ft | 19 kts | 148° |
| 2026-05-07 16:11 | -23.63382 | -46.65295 | 2601 ft | 18 kts | 147° |
| 2026-05-07 16:11 | -23.63465 | -46.65237 | 2600 ft | 3 kts | 148° |
| 2026-05-07 16:11 | -23.63485 | -46.65223 | 2600 ft | 3 kts | 147° |
| 2026-05-07 16:11 | -23.63503 | -46.65201 | 2599 ft | 5 kts | 116° |
| 2026-05-07 16:12 | -23.63489 | -46.65153 | 2599 ft | 9 kts | 45° |
| 2026-05-07 16:12 | -23.63434 | -46.65116 | 2599 ft | 5 kts | 352° |
| 2026-05-07 16:12 | -23.63421 | -46.65124 | 2600 ft | 0 kts | 328° |
| 2026-05-07 16:12 | -23.63323 | -46.65191 | 2607 ft | 53 kts | 328° |
| 2026-05-07 16:13 | -23.62776 | -46.65570 | 2607 ft | 131 kts | 328° |
| 2026-05-07 16:13 | -23.61859 | -46.66244 | 2921 ft | 172 kts | 329° |
| 2026-05-07 16:13 | -23.60899 | -46.66912 | 4223 ft | 157 kts | 329° |
| 2026-05-07 16:13 | -23.60194 | -46.67854 | 5045 ft | 173 kts | 295° |
| 2026-05-07 16:14 | -23.59761 | -46.69209 | 5416 ft | 205 kts | 295° |
| 2026-05-07 16:14 | -23.59237 | -46.70768 | 5629 ft | 233 kts | 295° |
| 2026-05-07 16:14 | -23.58632 | -46.72509 | 5980 ft | 255 kts | 294° |
| 2026-05-07 16:14 | -23.57988 | -46.74337 | 6771 ft | 260 kts | 294° |
| 2026-05-07 16:15 | -23.57349 | -46.76207 | 7208 ft | 268 kts | 289° |
| 2026-05-07 16:15 | -23.57295 | -46.78283 | 7431 ft | 286 kts | 259° |
| 2026-05-07 16:15 | -23.58236 | -46.80211 | 7450 ft | 297 kts | 228° |
| 2026-05-07 16:15 | -23.59988 | -46.81405 | 7459 ft | 302 kts | 200° |
| 2026-05-07 16:16 | -23.61853 | -46.82428 | 7435 ft | 302 kts | 225° |
| 2026-05-07 16:16 | -23.63116 | -46.84208 | 7436 ft | 296 kts | 241° |
| 2026-05-07 16:16 | -23.64511 | -46.85870 | 7516 ft | 306 kts | 211° |
| 2026-05-07 16:16 | -23.66480 | -46.86767 | 8294 ft | 310 kts | 203° |
| 2026-05-07 16:17 | -23.68464 | -46.87680 | 9201 ft | 311 kts | 205° |
| 2026-05-07 16:17 | -23.70448 | -46.88669 | 10032 ft | 316 kts | 206° |
| 2026-05-07 16:17 | -23.72471 | -46.89713 | 10577 ft | 332 kts | 206° |
| 2026-05-07 16:17 | -23.74481 | -46.91104 | 10823 ft | 352 kts | 226° |
| 2026-05-07 16:18 | -23.75836 | -46.93297 | 11351 ft | 358 kts | 252° |
| 2026-05-07 16:18 | -23.76247 | -46.95948 | 12073 ft | 354 kts | 275° |
| 2026-05-07 16:18 | -23.75970 | -46.98657 | 12792 ft | 357 kts | 282° |
| 2026-05-07 16:18 | -23.75574 | -47.01360 | 13373 ft | 364 kts | 281° |
| 2026-05-07 16:19 | -23.75196 | -47.04075 | 14004 ft | 370 kts | 280° |
| 2026-05-07 16:19 | -23.74837 | -47.06865 | 14683 ft | 371 kts | 279° |
| 2026-05-07 16:19 | -23.74221 | -47.09573 | 15428 ft | 367 kts | 298° |
| 2026-05-07 16:19 | -23.72743 | -47.11818 | 16071 ft | 366 kts | 319° |
| 2026-05-07 16:20 | -23.70651 | -47.13389 | 16704 ft | 366 kts | 336° |
| 2026-05-07 16:20 | -23.68218 | -47.14209 | 17281 ft | 369 kts | 349° |
| 2026-05-07 16:20 | -23.65691 | -47.14727 | 17961 ft | 370 kts | 350° |
| 2026-05-07 16:20 | -23.63142 | -47.15237 | 18568 ft | 373 kts | 349° |
| 2026-05-07 16:21 | -23.60578 | -47.15775 | 19119 ft | 377 kts | 348° |
| 2026-05-07 16:21 | -23.57992 | -47.16336 | 19625 ft | 381 kts | 348° |
| 2026-05-07 16:21 | -23.55380 | -47.16909 | 20104 ft | 386 kts | 347° |
| 2026-05-07 16:21 | -23.52737 | -47.17489 | 20689 ft | 388 kts | 347° |
| 2026-05-07 16:22 | -23.50084 | -47.18072 | 21251 ft | 390 kts | 346° |
| 2026-05-07 16:22 | -23.47413 | -47.18659 | 21756 ft | 394 kts | 346° |
| 2026-05-07 16:22 | -23.44709 | -47.19252 | 22241 ft | 398 kts | 346° |
| 2026-05-07 16:22 | -23.41980 | -47.19850 | 22741 ft | 402 kts | 346° |
| 2026-05-07 16:23 | -23.39235 | -47.20451 | 23268 ft | 405 kts | 346° |
| 2026-05-07 16:23 | -23.36464 | -47.21057 | 23735 ft | 408 kts | 345° |
| 2026-05-07 16:23 | -23.33669 | -47.21668 | 24149 ft | 411 kts | 345° |
| 2026-05-07 16:23 | -23.30859 | -47.22282 | 24572 ft | 413 kts | 346° |
| 2026-05-07 16:24 | -23.28033 | -47.22900 | 24981 ft | 416 kts | 346° |
| 2026-05-07 16:24 | -23.25189 | -47.23520 | 25400 ft | 418 kts | 346° |
| 2026-05-07 16:24 | -23.22334 | -47.24142 | 25855 ft | 419 kts | 345° |
| 2026-05-07 16:24 | -23.19464 | -47.24767 | 26297 ft | 422 kts | 345° |
| 2026-05-07 16:25 | -23.16577 | -47.25396 | 26717 ft | 424 kts | 345° |
| 2026-05-07 16:25 | -23.13666 | -47.26030 | 27045 ft | 428 kts | 345° |
| 2026-05-07 16:25 | -23.10741 | -47.26667 | 27466 ft | 430 kts | 345° |
| 2026-05-07 16:25 | -23.07802 | -47.27306 | 27861 ft | 432 kts | 345° |
| 2026-05-07 16:26 | -23.04834 | -47.27952 | 28139 ft | 437 kts | 345° |
| 2026-05-07 16:26 | -23.01843 | -47.28602 | 28512 ft | 439 kts | 345° |
| 2026-05-07 16:26 | -22.98839 | -47.29254 | 28917 ft | 441 kts | 345° |
| 2026-05-07 16:26 | -22.96846 | -47.29687 | 29098 ft | 444 kts | 345° |
| 2026-05-07 16:27 | -22.92775 | -47.30571 | 29558 ft | 447 kts | 345° |
| 2026-05-07 16:27 | -22.89729 | -47.31231 | 29917 ft | 448 kts | 345° |
| 2026-05-07 16:27 | -22.86653 | -47.31899 | 30146 ft | 453 kts | 345° |
| 2026-05-07 16:27 | -22.83554 | -47.32571 | 30356 ft | 456 kts | 345° |
| 2026-05-07 16:28 | -22.80428 | -47.33248 | 30585 ft | 459 kts | 345° |
| 2026-05-07 16:28 | -22.77289 | -47.33927 | 30919 ft | 460 kts | 345° |
| 2026-05-07 16:28 | -22.74159 | -47.34604 | 31296 ft | 459 kts | 345° |
| 2026-05-07 16:28 | -22.71068 | -47.35272 | 31668 ft | 458 kts | 345° |
| 2026-05-07 16:29 | -22.67963 | -47.36027 | 31987 ft | 455 kts | 337° |
| 2026-05-07 16:29 | -22.65179 | -47.37545 | 32230 ft | 446 kts | 319° |
| 2026-05-07 16:29 | -22.62730 | -47.39592 | 32593 ft | 444 kts | 316° |
| 2026-05-07 16:29 | -22.60307 | -47.41682 | 32821 ft | 447 kts | 316° |
| 2026-05-07 16:30 | -22.57862 | -47.43782 | 33074 ft | 450 kts | 316° |
| 2026-05-07 16:30 | -22.55400 | -47.45869 | 33464 ft | 449 kts | 316° |
| 2026-05-07 16:30 | -22.53068 | -47.47823 | 33857 ft | 448 kts | 316° |
| 2026-05-07 16:30 | -22.50608 | -47.49873 | 34160 ft | 448 kts | 316° |
| 2026-05-07 16:31 | -22.48128 | -47.51935 | 34432 ft | 448 kts | 316° |
| 2026-05-07 16:31 | -22.45665 | -47.53982 | 34766 ft | 447 kts | 316° |
| 2026-05-07 16:31 | -22.43076 | -47.55858 | 35099 ft | 454 kts | 329° |
| 2026-05-07 16:31 | -22.40025 | -47.56874 | 35391 ft | 465 kts | 345° |
| 2026-05-07 16:32 | -22.36831 | -47.57421 | 35716 ft | 465 kts | 346° |
| 2026-05-07 16:32 | -22.33623 | -47.57915 | 35958 ft | 466 kts | 346° |
| 2026-05-07 16:32 | -22.30391 | -47.58404 | 35978 ft | 471 kts | 346° |
| 2026-05-07 16:33 | -22.23891 | -47.59425 | 35990 ft | 471 kts | 346° |
| 2026-05-07 16:33 | -22.17468 | -47.60483 | 35993 ft | 464 kts | 345° |
| 2026-05-07 16:34 | -22.11092 | -47.61555 | 36012 ft | 464 kts | 345° |
| 2026-05-07 16:34 | -22.04714 | -47.62630 | 36000 ft | 464 kts | 345° |
| 2026-05-07 16:35 | -21.98336 | -47.63699 | 36007 ft | 463 kts | 345° |
| 2026-05-07 16:35 | -21.91959 | -47.64766 | 36008 ft | 464 kts | 346° |
| 2026-05-07 16:36 | -21.85570 | -47.65835 | 35991 ft | 465 kts | 346° |
| 2026-05-07 16:36 | -21.79175 | -47.66902 | 35984 ft | 465 kts | 346° |
| 2026-05-07 16:37 | -21.72769 | -47.67972 | 35990 ft | 466 kts | 346° |
| 2026-05-07 16:37 | -21.66357 | -47.69041 | 35984 ft | 467 kts | 346° |
| 2026-05-07 16:38 | -21.59932 | -47.70111 | 35984 ft | 467 kts | 346° |
| 2026-05-07 16:38 | -21.54592 | -47.70992 | 35982 ft | 467 kts | 346° |
| 2026-05-07 16:39 | -21.48166 | -47.72046 | 35985 ft | 467 kts | 346° |
| 2026-05-07 16:39 | -21.41827 | -47.73087 | 35995 ft | 468 kts | 346° |
| 2026-05-07 16:40 | -21.35386 | -47.74144 | 36021 ft | 468 kts | 346° |
| 2026-05-07 16:40 | -21.28953 | -47.75199 | 36018 ft | 468 kts | 346° |
| 2026-05-07 16:41 | -21.22516 | -47.76254 | 36042 ft | 468 kts | 346° |
| 2026-05-07 16:41 | -21.16085 | -47.77307 | 36049 ft | 467 kts | 346° |
| 2026-05-07 16:42 | -21.09648 | -47.78290 | 36049 ft | 467 kts | 347° |
| 2026-05-07 16:42 | -21.03197 | -47.79149 | 35980 ft | 467 kts | 348° |
| 2026-05-07 16:43 | -20.96746 | -47.80004 | 35987 ft | 467 kts | 348° |
| 2026-05-07 16:43 | -20.90301 | -47.80875 | 35983 ft | 466 kts | 347° |
| 2026-05-07 16:44 | -20.83870 | -47.81751 | 35981 ft | 466 kts | 347° |
| 2026-05-07 16:44 | -20.77477 | -47.82623 | 35980 ft | 466 kts | 348° |
| 2026-05-07 16:45 | -20.71049 | -47.83498 | 35988 ft | 466 kts | 348° |
| 2026-05-07 16:45 | -20.64619 | -47.84372 | 35981 ft | 466 kts | 348° |
| 2026-05-07 16:46 | -20.58192 | -47.85245 | 35982 ft | 465 kts | 348° |
| 2026-05-07 16:46 | -20.51769 | -47.86117 | 35983 ft | 465 kts | 348° |
| 2026-05-07 16:47 | -20.45344 | -47.86988 | 35988 ft | 466 kts | 348° |
| 2026-05-07 16:47 | -20.38911 | -47.87860 | 35982 ft | 466 kts | 348° |
| 2026-05-07 16:48 | -20.32468 | -47.88732 | 35973 ft | 467 kts | 348° |
| 2026-05-07 16:48 | -20.26018 | -47.89606 | 35971 ft | 467 kts | 348° |
| 2026-05-07 16:49 | -20.19569 | -47.90478 | 35982 ft | 467 kts | 348° |
| 2026-05-07 16:49 | -20.13119 | -47.91351 | 35977 ft | 468 kts | 348° |
| 2026-05-07 16:50 | -20.06654 | -47.92224 | 36004 ft | 468 kts | 348° |
| 2026-05-07 16:50 | -20.00188 | -47.93097 | 36039 ft | 469 kts | 348° |
| 2026-05-07 16:51 | -19.93708 | -47.93971 | 36063 ft | 469 kts | 348° |
| 2026-05-07 16:51 | -19.87224 | -47.94845 | 36095 ft | 470 kts | 348° |
| 2026-05-07 16:52 | -19.80744 | -47.95717 | 36099 ft | 470 kts | 348° |
| 2026-05-07 16:52 | -19.74241 | -47.96593 | 35690 ft | 471 kts | 348° |
| 2026-05-07 16:52 | -19.71012 | -47.97026 | 35325 ft | 465 kts | 349° |
| 2026-05-07 16:53 | -19.67813 | -47.97454 | 34825 ft | 462 kts | 349° |
| 2026-05-07 16:53 | -19.64644 | -47.97880 | 34433 ft | 459 kts | 349° |
| 2026-05-07 16:53 | -19.61484 | -47.98304 | 34032 ft | 456 kts | 349° |
| 2026-05-07 16:53 | -19.58342 | -47.98726 | 33568 ft | 454 kts | 349° |
| 2026-05-07 16:54 | -19.55220 | -47.99146 | 33146 ft | 451 kts | 350° |
| 2026-05-07 16:54 | -19.52120 | -47.99562 | 32742 ft | 447 kts | 350° |
| 2026-05-07 16:54 | -19.49047 | -47.99974 | 32343 ft | 444 kts | 350° |
| 2026-05-07 16:54 | -19.45996 | -48.00383 | 31959 ft | 441 kts | 350° |
| 2026-05-07 16:55 | -19.42962 | -48.00789 | 31561 ft | 438 kts | 350° |
| 2026-05-07 16:55 | -19.39951 | -48.01193 | 31169 ft | 435 kts | 350° |
| 2026-05-07 16:55 | -19.36961 | -48.01594 | 30797 ft | 432 kts | 350° |
| 2026-05-07 16:55 | -19.33998 | -48.01991 | 30417 ft | 429 kts | 350° |
| 2026-05-07 16:56 | -19.31047 | -48.02386 | 30029 ft | 426 kts | 350° |
| 2026-05-07 16:56 | -19.28117 | -48.02784 | 29590 ft | 423 kts | 350° |
| 2026-05-07 16:56 | -19.22336 | -48.03603 | 28758 ft | 415 kts | 350° |
| 2026-05-07 16:57 | -19.19519 | -48.04005 | 28355 ft | 412 kts | 350° |
| 2026-05-07 16:57 | -19.16689 | -48.04409 | 27958 ft | 409 kts | 350° |
| 2026-05-07 16:57 | -19.13886 | -48.04807 | 27586 ft | 405 kts | 350° |
| 2026-05-07 16:57 | -19.11100 | -48.05202 | 27194 ft | 402 kts | 350° |
| 2026-05-07 16:58 | -19.08333 | -48.05594 | 26801 ft | 400 kts | 350° |
| 2026-05-07 16:58 | -19.05581 | -48.05983 | 26408 ft | 398 kts | 351° |
| 2026-05-07 16:58 | -19.02843 | -48.06370 | 26023 ft | 396 kts | 351° |
| 2026-05-07 16:58 | -19.00122 | -48.06755 | 25636 ft | 393 kts | 351° |
| 2026-05-07 16:59 | -18.97413 | -48.07138 | 25338 ft | 392 kts | 351° |
| 2026-05-07 16:59 | -18.94714 | -48.07519 | 24950 ft | 391 kts | 351° |
| 2026-05-07 16:59 | -18.92049 | -48.08004 | 24577 ft | 387 kts | 343° |
| 2026-05-07 16:59 | -18.89526 | -48.08954 | 24207 ft | 383 kts | 333° |
| 2026-05-07 17:00 | -18.87213 | -48.10332 | 23806 ft | 381 kts | 324° |
| 2026-05-07 17:00 | -18.84999 | -48.11861 | 23381 ft | 380 kts | 324° |
| 2026-05-07 17:00 | -18.82805 | -48.13392 | 22981 ft | 377 kts | 324° |
| 2026-05-07 17:00 | -18.80619 | -48.14916 | 22586 ft | 375 kts | 324° |
| 2026-05-07 17:01 | -18.78448 | -48.16424 | 22222 ft | 373 kts | 324° |
| 2026-05-07 17:01 | -18.76285 | -48.17922 | 21845 ft | 371 kts | 326° |
| 2026-05-07 17:01 | -18.74133 | -48.19406 | 21468 ft | 369 kts | 325° |
| 2026-05-07 17:01 | -18.71992 | -48.20880 | 21103 ft | 366 kts | 326° |
| 2026-05-07 17:02 | -18.69860 | -48.22345 | 20723 ft | 365 kts | 326° |
| 2026-05-07 17:02 | -18.67743 | -48.23798 | 20361 ft | 362 kts | 327° |
| 2026-05-07 17:02 | -18.65632 | -48.25246 | 19984 ft | 361 kts | 327° |
| 2026-05-07 17:02 | -18.63536 | -48.26684 | 19622 ft | 359 kts | 327° |
| 2026-05-07 17:03 | -18.61446 | -48.28117 | 19245 ft | 358 kts | 327° |
| 2026-05-07 17:03 | -18.59360 | -48.29546 | 18856 ft | 357 kts | 328° |
| 2026-05-07 17:03 | -18.57277 | -48.30973 | 18490 ft | 356 kts | 328° |
| 2026-05-07 17:03 | -18.55201 | -48.32395 | 18084 ft | 355 kts | 328° |
| 2026-05-07 17:04 | -18.53138 | -48.33808 | 17690 ft | 353 kts | 328° |
| 2026-05-07 17:04 | -18.51084 | -48.35213 | 17323 ft | 351 kts | 328° |
| 2026-05-07 17:04 | -18.49044 | -48.36609 | 16958 ft | 348 kts | 328° |
| 2026-05-07 17:04 | -18.47021 | -48.37993 | 16598 ft | 345 kts | 328° |
| 2026-05-07 17:05 | -18.45012 | -48.39366 | 16240 ft | 343 kts | 328° |
| 2026-05-07 17:05 | -18.43019 | -48.40729 | 15894 ft | 340 kts | 328° |
| 2026-05-07 17:05 | -18.41042 | -48.42080 | 15539 ft | 338 kts | 328° |
| 2026-05-07 17:05 | -18.39077 | -48.43422 | 15190 ft | 335 kts | 328° |
| 2026-05-07 17:06 | -18.37129 | -48.44753 | 14844 ft | 332 kts | 328° |
| 2026-05-07 17:06 | -18.35197 | -48.46073 | 14503 ft | 330 kts | 328° |
| 2026-05-07 17:06 | -18.33277 | -48.47384 | 14163 ft | 327 kts | 328° |
| 2026-05-07 17:06 | -18.31372 | -48.48684 | 13816 ft | 326 kts | 328° |
| 2026-05-07 17:07 | -18.29476 | -48.49978 | 13414 ft | 324 kts | 328° |
| 2026-05-07 17:07 | -18.27592 | -48.51264 | 13053 ft | 321 kts | 328° |
| 2026-05-07 17:07 | -18.25730 | -48.52534 | 12716 ft | 318 kts | 328° |
| 2026-05-07 17:07 | -18.23880 | -48.53794 | 12365 ft | 316 kts | 328° |
| 2026-05-07 17:08 | -18.22045 | -48.55046 | 12023 ft | 313 kts | 329° |
| 2026-05-07 17:08 | -18.20225 | -48.56286 | 11691 ft | 310 kts | 329° |
| 2026-05-07 17:08 | -18.18424 | -48.57513 | 11354 ft | 308 kts | 329° |
| 2026-05-07 17:08 | -18.16629 | -48.58736 | 11021 ft | 306 kts | 329° |
| 2026-05-07 17:09 | -18.14856 | -48.59943 | 10691 ft | 303 kts | 329° |
| 2026-05-07 17:09 | -18.13094 | -48.61144 | 10368 ft | 301 kts | 329° |
| 2026-05-07 17:09 | -18.11370 | -48.62317 | 10158 ft | 295 kts | 329° |
| 2026-05-07 17:09 | -18.09666 | -48.63478 | 9987 ft | 288 kts | 329° |
| 2026-05-07 17:10 | -18.08010 | -48.64606 | 9916 ft | 277 kts | 330° |
| 2026-05-07 17:10 | -18.06359 | -48.65728 | 9433 ft | 279 kts | 329° |
| 2026-05-07 17:10 | -18.04773 | -48.66807 | 9034 ft | 273 kts | 330° |
| 2026-05-07 17:10 | -18.03205 | -48.67872 | 8735 ft | 265 kts | 330° |
| 2026-05-07 17:11 | -18.01658 | -48.68924 | 8454 ft | 264 kts | 330° |
| 2026-05-07 17:11 | -18.00115 | -48.69972 | 8144 ft | 264 kts | 329° |
| 2026-05-07 17:11 | -17.98578 | -48.71016 | 7867 ft | 262 kts | 330° |
| 2026-05-07 17:11 | -17.97051 | -48.72053 | 7586 ft | 262 kts | 329° |
| 2026-05-07 17:12 | -17.95523 | -48.73092 | 7294 ft | 262 kts | 329° |
| 2026-05-07 17:12 | -17.93992 | -48.74131 | 7018 ft | 263 kts | 330° |
| 2026-05-07 17:12 | -17.92449 | -48.75178 | 6723 ft | 265 kts | 330° |
| 2026-05-07 17:12 | -17.90922 | -48.76214 | 6598 ft | 258 kts | 330° |
| 2026-05-07 17:13 | -17.89355 | -48.77046 | 6457 ft | 247 kts | 349° |
| 2026-05-07 17:13 | -17.87696 | -48.77237 | 6356 ft | 233 kts | 359° |
| 2026-05-07 17:13 | -17.86143 | -48.77329 | 6280 ft | 215 kts | 359° |
| 2026-05-07 17:13 | -17.84701 | -48.77415 | 6154 ft | 201 kts | 359° |
| 2026-05-07 17:14 | -17.83335 | -48.77499 | 6062 ft | 192 kts | 359° |
| 2026-05-07 17:14 | -17.82023 | -48.77580 | 5898 ft | 186 kts | 358° |
| 2026-05-07 17:14 | -17.80779 | -48.77635 | 5719 ft | 175 kts | 7° |
| 2026-05-07 17:14 | -17.79701 | -48.77163 | 5549 ft | 166 kts | 39° |
| 2026-05-07 17:15 | -17.79011 | -48.76181 | 5381 ft | 173 kts | 64° |
| 2026-05-07 17:15 | -17.78503 | -48.74984 | 5185 ft | 185 kts | 63° |
| 2026-05-07 17:15 | -17.77989 | -48.73767 | 4985 ft | 179 kts | 64° |
| 2026-05-07 17:15 | -17.77490 | -48.72579 | 4745 ft | 176 kts | 63° |
| 2026-05-07 17:16 | -17.77015 | -48.71445 | 4500 ft | 161 kts | 63° |
| 2026-05-07 17:16 | -17.76596 | -48.70434 | 4311 ft | 141 kts | 63° |
| 2026-05-07 17:16 | -17.76197 | -48.69479 | 4093 ft | 144 kts | 63° |
| 2026-05-07 17:16 | -17.75803 | -48.68534 | 3869 ft | 138 kts | 63° |
| 2026-05-07 17:17 | -17.75419 | -48.67613 | 3683 ft | 143 kts | 63° |
| 2026-05-07 17:17 | -17.75017 | -48.66651 | 3458 ft | 143 kts | 64° |
| 2026-05-07 17:17 | -17.74617 | -48.65694 | 3248 ft | 145 kts | 64° |
| 2026-05-07 17:17 | -17.74208 | -48.64718 | 3055 ft | 146 kts | 65° |
| 2026-05-07 17:18 | -17.73796 | -48.63762 | 2810 ft | 141 kts | 65° |
| 2026-05-07 17:18 | -17.73432 | -48.62813 | 2651 ft | 141 kts | 61° |
| 2026-05-07 17:18 | -17.73031 | -48.61882 | 2459 ft | 139 kts | 63° |
| 2026-05-07 17:18 | -17.72650 | -48.60979 | 2311 ft | 124 kts | 65° |
| 2026-05-07 17:19 | -17.72458 | -48.60514 | 2300 ft | 34 kts | 67° |
| 2026-05-07 17:19 | -17.72364 | -48.60288 | 2283 ft | 34 kts | 66° |
| 2026-05-07 17:19 | -17.72274 | -48.60071 | 2277 ft | 31 kts | 66° |
| 2026-05-07 17:19 | -17.72188 | -48.59866 | 2270 ft | 28 kts | 66° |
| 2026-05-07 17:20 | -17.72124 | -48.59772 | 2268 ft | 5 kts | 95° |
| 2026-05-07 17:20 | -17.72137 | -48.59757 | 2268 ft | 6 kts | 156° |
| 2026-05-07 17:20 | -17.72166 | -48.59796 | 2269 ft | 10 kts | 249° |
| 2026-05-07 17:20 | -17.72198 | -48.59882 | 2271 ft | 15 kts | 249° |
| 2026-05-07 17:21 | -17.72240 | -48.59992 | 2274 ft | 18 kts | 247° |
| 2026-05-07 17:21 | -17.72298 | -48.60129 | 2279 ft | 24 kts | 245° |
| 2026-05-07 17:21 | -17.72372 | -48.60306 | 2283 ft | 28 kts | 246° |
| 2026-05-07 17:21 | -17.72446 | -48.60487 | 2304 ft | 26 kts | 246° |
| 2026-05-07 17:22 | -17.72517 | -48.60655 | 2305 ft | 24 kts | 246° |
| 2026-05-07 17:22 | -17.72583 | -48.60812 | 2309 ft | 23 kts | 246° |
| 2026-05-07 17:22 | -17.72645 | -48.60963 | 2310 ft | 22 kts | 246° |
| 2026-05-07 17:22 | -17.72708 | -48.61111 | 2312 ft | 22 kts | 246° |
| 2026-05-07 17:23 | -17.72768 | -48.61255 | 2318 ft | 21 kts | 246° |
| 2026-05-07 17:23 | -17.72770 | -48.61370 | 2324 ft | 15 kts | 330° |
| 2026-05-07 17:23 | -17.72676 | -48.61413 | 2327 ft | 14 kts | 336° |
| 2026-05-07 17:23 | -17.72638 | -48.61464 | 2330 ft | 7 kts | 308° |
| 2026-05-07 17:24 | -17.72606 | -48.61480 | 2328 ft | 1 kts | 338° |
| 2026-05-07 17:24 | -17.72605 | -48.61480 | 2328 ft | 0 kts | 338° |